sensor_id;sensor_type;location;lat;lon;timestamp;pressure;altitude;pressure_sealevel;temperature;humidity
38880;BME280;25887;30.194;-97.880;2023-04-20T00:00:43;97957.97;;;27.46;53.43
38880;BME280;25887;30.194;-97.880;2023-04-20T00:03:09;97957.38;;;27.43;53.79
38880;BME280;25887;30.194;-97.880;2023-04-20T00:05:37;97954.03;;;27.41;54.04
38880;BME280;25887;30.194;-97.880;2023-04-20T00:08:03;97962.16;;;27.38;53.82
38880;BME280;25887;30.194;-97.880;2023-04-20T00:10:29;97964.31;;;27.33;54.19
38880;BME280;25887;30.194;-97.880;2023-04-20T00:12:55;97952.31;;;27.29;54.40
38880;BME280;25887;30.194;-97.880;2023-04-20T00:15:21;97958.78;;;27.25;54.54
38880;BME280;25887;30.194;-97.880;2023-04-20T00:17:48;97957.19;;;27.22;54.60
38880;BME280;25887;30.194;-97.880;2023-04-20T00:20:15;97946.03;;;27.18;54.39
38880;BME280;25887;30.194;-97.880;2023-04-20T00:22:41;97954.16;;;27.15;54.54
38880;BME280;25887;30.194;-97.880;2023-04-20T00:25:07;97959.78;;;27.11;54.37
38880;BME280;25887;30.194;-97.880;2023-04-20T00:27:34;97956.53;;;27.07;54.60
38880;BME280;25887;30.194;-97.880;2023-04-20T00:30:00;97961.06;;;27.05;54.70
38880;BME280;25887;30.194;-97.880;2023-04-20T00:32:26;97956.97;;;27.01;54.79
38880;BME280;25887;30.194;-97.880;2023-04-20T00:34:54;97955.50;;;26.97;54.80
38880;BME280;25887;30.194;-97.880;2023-04-20T00:37:20;97958.38;;;26.94;55.13
38880;BME280;25887;30.194;-97.880;2023-04-20T00:39:47;97961.34;;;26.89;55.24
38880;BME280;25887;30.194;-97.880;2023-04-20T00:42:13;97966.00;;;26.86;55.38
38880;BME280;25887;30.194;-97.880;2023-04-20T00:44:39;97971.47;;;26.83;55.00
38880;BME280;25887;30.194;-97.880;2023-04-20T00:47:05;97968.25;;;26.79;55.08
38880;BME280;25887;30.194;-97.880;2023-04-20T00:49:34;97963.09;;;26.78;55.16
38880;BME280;25887;30.194;-97.880;2023-04-20T00:52:03;97966.75;;;26.75;55.10
38880;BME280;25887;30.194;-97.880;2023-04-20T00:54:29;97974.06;;;26.72;55.27
38880;BME280;25887;30.194;-97.880;2023-04-20T00:56:57;97979.53;;;26.69;55.08
38880;BME280;25887;30.194;-97.880;2023-04-20T00:59:24;97977.00;;;26.67;55.48
38880;BME280;25887;30.194;-97.880;2023-04-20T01:01:50;97980.84;;;26.63;55.54
38880;BME280;25887;30.194;-97.880;2023-04-20T01:04:17;97987.16;;;26.60;55.44
38880;BME280;25887;30.194;-97.880;2023-04-20T01:06:43;97989.06;;;26.58;55.38
38880;BME280;25887;30.194;-97.880;2023-04-20T01:09:09;97984.75;;;26.57;55.56
38880;BME280;25887;30.194;-97.880;2023-04-20T01:11:38;97992.66;;;26.57;55.25
38880;BME280;25887;30.194;-97.880;2023-04-20T01:14:04;97992.03;;;26.54;55.20
38880;BME280;25887;30.194;-97.880;2023-04-20T01:16:31;97995.72;;;26.51;55.46
38880;BME280;25887;30.194;-97.880;2023-04-20T01:18:59;97994.03;;;26.50;55.70
38880;BME280;25887;30.194;-97.880;2023-04-20T01:21:25;97995.00;;;26.49;55.29
38880;BME280;25887;30.194;-97.880;2023-04-20T01:23:51;97995.81;;;26.50;55.28
38880;BME280;25887;30.194;-97.880;2023-04-20T01:26:18;97998.78;;;26.45;55.64
38880;BME280;25887;30.194;-97.880;2023-04-20T01:28:46;98005.75;;;26.46;55.65
38880;BME280;25887;30.194;-97.880;2023-04-20T01:31:12;98004.03;;;26.45;55.94
38880;BME280;25887;30.194;-97.880;2023-04-20T01:33:39;98009.53;;;26.42;56.00
38880;BME280;25887;30.194;-97.880;2023-04-20T01:36:07;98011.34;;;26.42;55.67
38880;BME280;25887;30.194;-97.880;2023-04-20T01:38:34;98013.13;;;26.41;55.95
38880;BME280;25887;30.194;-97.880;2023-04-20T01:41:05;98016.72;;;26.40;55.50
38880;BME280;25887;30.194;-97.880;2023-04-20T01:43:33;98014.19;;;26.38;55.87
38880;BME280;25887;30.194;-97.880;2023-04-20T01:46:00;98016.88;;;26.37;55.64
38880;BME280;25887;30.194;-97.880;2023-04-20T01:48:27;98028.38;;;26.36;55.92
38880;BME280;25887;30.194;-97.880;2023-04-20T01:50:53;98029.31;;;26.35;55.80
38880;BME280;25887;30.194;-97.880;2023-04-20T01:53:20;98038.19;;;26.34;56.24
38880;BME280;25887;30.194;-97.880;2023-04-20T01:55:47;98032.19;;;26.32;56.04
38880;BME280;25887;30.194;-97.880;2023-04-20T01:58:13;98032.19;;;26.32;55.91
38880;BME280;25887;30.194;-97.880;2023-04-20T02:00:39;98038.47;;;26.29;55.85
38880;BME280;25887;30.194;-97.880;2023-04-20T02:03:06;98049.97;;;26.28;55.80
38880;BME280;25887;30.194;-97.880;2023-04-20T02:05:32;98045.78;;;26.26;55.93
38880;BME280;25887;30.194;-97.880;2023-04-20T02:07:58;98050.19;;;26.25;56.27
38880;BME280;25887;30.194;-97.880;2023-04-20T02:10:25;98052.00;;;26.25;55.77
38880;BME280;25887;30.194;-97.880;2023-04-20T02:12:51;98054.72;;;26.23;56.00
38880;BME280;25887;30.194;-97.880;2023-04-20T02:15:17;98060.09;;;26.22;56.24
38880;BME280;25887;30.194;-97.880;2023-04-20T02:17:44;98060.19;;;26.20;56.17
38880;BME280;25887;30.194;-97.880;2023-04-20T02:20:10;98063.78;;;26.19;56.06
38880;BME280;25887;30.194;-97.880;2023-04-20T02:22:37;98048.09;;;26.18;56.33
38880;BME280;25887;30.194;-97.880;2023-04-20T02:25:04;98063.16;;;26.16;56.37
38880;BME280;25887;30.194;-97.880;2023-04-20T02:27:31;98063.34;;;26.13;56.19
38880;BME280;25887;30.194;-97.880;2023-04-20T02:29:58;98066.94;;;26.11;56.36
38880;BME280;25887;30.194;-97.880;2023-04-20T02:32:25;98066.94;;;26.11;56.69
38880;BME280;25887;30.194;-97.880;2023-04-20T02:34:52;98064.53;;;26.08;56.39
38880;BME280;25887;30.194;-97.880;2023-04-20T02:37:18;98062.09;;;26.05;56.32
38880;BME280;25887;30.194;-97.880;2023-04-20T02:39:44;98069.13;;;26.05;56.61
38880;BME280;25887;30.194;-97.880;2023-04-20T02:42:10;98065.78;;;26.03;56.79
38880;BME280;25887;30.194;-97.880;2023-04-20T02:44:37;98063.25;;;26.01;56.71
38880;BME280;25887;30.194;-97.880;2023-04-20T02:47:03;98076.53;;;26.00;56.98
38880;BME280;25887;30.194;-97.880;2023-04-20T02:49:29;98066.06;;;25.98;56.82
38880;BME280;25887;30.194;-97.880;2023-04-20T02:51:56;98074.09;;;25.97;57.01
38880;BME280;25887;30.194;-97.880;2023-04-20T02:54:22;98070.72;;;25.95;57.25
38880;BME280;25887;30.194;-97.880;2023-04-20T02:56:48;98086.63;;;25.93;57.26
38880;BME280;25887;30.194;-97.880;2023-04-20T02:59:14;98089.44;;;25.90;57.05
38880;BME280;25887;30.194;-97.880;2023-04-20T03:01:40;98087.88;;;25.88;57.15
38880;BME280;25887;30.194;-97.880;2023-04-20T03:04:07;98079.22;;;25.86;57.38
38880;BME280;25887;30.194;-97.880;2023-04-20T03:06:33;98081.97;;;25.84;57.55
38880;BME280;25887;30.194;-97.880;2023-04-20T03:09:01;98090.78;;;25.83;57.42
38880;BME280;25887;30.194;-97.880;2023-04-20T03:11:28;98088.47;;;25.78;57.88
38880;BME280;25887;30.194;-97.880;2023-04-20T03:13:57;98093.84;;;25.77;57.72
38880;BME280;25887;30.194;-97.880;2023-04-20T03:16:23;98104.47;;;25.75;57.87
38880;BME280;25887;30.194;-97.880;2023-04-20T03:18:49;98104.56;;;25.74;58.19
38880;BME280;25887;30.194;-97.880;2023-04-20T03:21:15;98116.22;;;25.70;58.40
38880;BME280;25887;30.194;-97.880;2023-04-20T03:23:41;98115.47;;;25.68;58.25
38880;BME280;25887;30.194;-97.880;2023-04-20T03:26:08;98108.63;;;25.65;58.20
38880;BME280;25887;30.194;-97.880;2023-04-20T03:28:34;98113.97;;;25.64;58.16
38880;BME280;25887;30.194;-97.880;2023-04-20T03:31:00;98114.94;;;25.63;58.66
38880;BME280;25887;30.194;-97.880;2023-04-20T03:33:26;98116.84;;;25.61;58.67
38880;BME280;25887;30.194;-97.880;2023-04-20T03:35:53;98131.09;;;25.56;58.81
38880;BME280;25887;30.194;-97.880;2023-04-20T03:38:19;98135.63;;;25.54;58.66
38880;BME280;25887;30.194;-97.880;2023-04-20T03:40:45;98139.22;;;25.53;58.85
38880;BME280;25887;30.194;-97.880;2023-04-20T03:43:11;98150.66;;;25.52;58.84
38880;BME280;25887;30.194;-97.880;2023-04-20T03:45:38;98148.97;;;25.51;58.93
38880;BME280;25887;30.194;-97.880;2023-04-20T03:48:04;98150.13;;;25.47;58.95
38880;BME280;25887;30.194;-97.880;2023-04-20T03:50:30;98153.69;;;25.46;59.14
38880;BME280;25887;30.194;-97.880;2023-04-20T03:52:56;98153.03;;;25.43;58.98
38880;BME280;25887;30.194;-97.880;2023-04-20T03:55:22;98159.25;;;25.42;59.29
38880;BME280;25887;30.194;-97.880;2023-04-20T03:57:49;98165.56;;;25.39;59.42
38880;BME280;25887;30.194;-97.880;2023-04-20T04:00:15;98165.72;;;25.36;59.33
38880;BME280;25887;30.194;-97.880;2023-04-20T04:02:41;98173.81;;;25.33;59.28
38880;BME280;25887;30.194;-97.880;2023-04-20T04:05:07;98169.69;;;25.29;59.39
38880;BME280;25887;30.194;-97.880;2023-04-20T04:07:34;98173.38;;;25.26;59.68
38880;BME280;25887;30.194;-97.880;2023-04-20T04:10:00;98174.41;;;25.24;59.34
38880;BME280;25887;30.194;-97.880;2023-04-20T04:12:29;98182.47;;;25.21;59.75
38880;BME280;25887;30.194;-97.880;2023-04-20T04:14:55;98196.56;;;25.20;59.48
38880;BME280;25887;30.194;-97.880;2023-04-20T04:17:21;98199.50;;;25.15;59.60
38880;BME280;25887;30.194;-97.880;2023-04-20T04:19:47;98203.91;;;25.15;59.55
38880;BME280;25887;30.194;-97.880;2023-04-20T04:22:13;98195.09;;;25.16;59.87
38880;BME280;25887;30.194;-97.880;2023-04-20T04:24:39;98203.91;;;25.15;59.53
38880;BME280;25887;30.194;-97.880;2023-04-20T04:27:06;98210.13;;;25.14;59.35
38880;BME280;25887;30.194;-97.880;2023-04-20T04:29:34;98215.53;;;25.11;59.69
38880;BME280;25887;30.194;-97.880;2023-04-20T04:32:04;98222.69;;;25.09;59.77
38880;BME280;25887;30.194;-97.880;2023-04-20T04:34:33;98226.25;;;25.08;59.78
38880;BME280;25887;30.194;-97.880;2023-04-20T04:37:00;98220.16;;;25.07;60.04
38880;BME280;25887;30.194;-97.880;2023-04-20T04:39:27;98222.84;;;25.06;59.68
38880;BME280;25887;30.194;-97.880;2023-04-20T04:41:53;98216.84;;;25.04;59.89
38880;BME280;25887;30.194;-97.880;2023-04-20T04:44:19;98217.03;;;25.00;59.88
38880;BME280;25887;30.194;-97.880;2023-04-20T04:46:45;98217.03;;;25.00;59.97
38880;BME280;25887;30.194;-97.880;2023-04-20T04:49:12;98218.91;;;24.98;60.00
38880;BME280;25887;30.194;-97.880;2023-04-20T04:51:38;98222.44;;;24.97;60.26
38880;BME280;25887;30.194;-97.880;2023-04-20T04:54:05;98221.91;;;24.92;60.18
38880;BME280;25887;30.194;-97.880;2023-04-20T04:56:34;98224.53;;;24.92;60.34
38880;BME280;25887;30.194;-97.880;2023-04-20T04:59:00;98216.75;;;24.91;60.23
38880;BME280;25887;30.194;-97.880;2023-04-20T05:01:26;98224.53;;;24.92;60.13
38880;BME280;25887;30.194;-97.880;2023-04-20T05:03:52;98229.97;;;24.89;60.00
38880;BME280;25887;30.194;-97.880;2023-04-20T05:06:19;98230.81;;;24.90;60.21
38880;BME280;25887;30.194;-97.880;2023-04-20T05:08:45;98229.13;;;24.89;60.00
38880;BME280;25887;30.194;-97.880;2023-04-20T05:11:11;98243.88;;;24.91;60.03
38880;BME280;25887;30.194;-97.880;2023-04-20T05:13:37;98242.19;;;24.90;60.02
38880;BME280;25887;30.194;-97.880;2023-04-20T05:16:04;98247.44;;;24.90;60.00
38880;BME280;25887;30.194;-97.880;2023-04-20T05:18:31;98250.97;;;24.89;59.88
38880;BME280;25887;30.194;-97.880;2023-04-20T05:20:58;98250.97;;;24.89;60.01
38880;BME280;25887;30.194;-97.880;2023-04-20T05:23:24;98239.72;;;24.87;60.05
38880;BME280;25887;30.194;-97.880;2023-04-20T05:25:50;98242.25;;;24.89;60.05
38880;BME280;25887;30.194;-97.880;2023-04-20T05:28:16;98239.72;;;24.87;60.32
38880;BME280;25887;30.194;-97.880;2023-04-20T05:30:43;98236.34;;;24.85;60.37
38880;BME280;25887;30.194;-97.880;2023-04-20T05:33:09;98231.94;;;24.86;60.26
38880;BME280;25887;30.194;-97.880;2023-04-20T05:35:35;98224.16;;;24.84;60.52
38880;BME280;25887;30.194;-97.880;2023-04-20T05:38:01;98223.31;;;24.84;60.17
38880;BME280;25887;30.194;-97.880;2023-04-20T05:40:31;98223.31;;;24.84;60.45
38880;BME280;25887;30.194;-97.880;2023-04-20T05:42:59;98223.38;;;24.82;60.11
38880;BME280;25887;30.194;-97.880;2023-04-20T05:45:26;98223.31;;;24.84;60.22
38880;BME280;25887;30.194;-97.880;2023-04-20T05:47:55;98225.09;;;24.83;60.37
38880;BME280;25887;30.194;-97.880;2023-04-20T05:50:22;98218.22;;;24.81;60.39
38880;BME280;25887;30.194;-97.880;2023-04-20T05:52:50;98216.53;;;24.80;60.47
38880;BME280;25887;30.194;-97.880;2023-04-20T05:55:17;98216.63;;;24.78;60.60
38880;BME280;25887;30.194;-97.880;2023-04-20T05:57:44;98217.66;;;24.76;60.42
38880;BME280;25887;30.194;-97.880;2023-04-20T06:00:12;98206.47;;;24.72;60.21
38880;BME280;25887;30.194;-97.880;2023-04-20T06:02:39;98215.13;;;24.74;60.55
38880;BME280;25887;30.194;-97.880;2023-04-20T06:05:06;98211.56;;;24.75;60.44
38880;BME280;25887;30.194;-97.880;2023-04-20T06:07:33;98209.84;;;24.74;60.42
38880;BME280;25887;30.194;-97.880;2023-04-20T06:10:00;98212.59;;;24.72;60.61
38880;BME280;25887;30.194;-97.880;2023-04-20T06:12:27;98206.47;;;24.72;60.44
38880;BME280;25887;30.194;-97.880;2023-04-20T06:14:57;98223.28;;;24.69;60.72
38880;BME280;25887;30.194;-97.880;2023-04-20T06:17:23;98222.34;;;24.70;60.74
38880;BME280;25887;30.194;-97.880;2023-04-20T06:19:49;98225.06;;;24.69;60.53
38880;BME280;25887;30.194;-97.880;2023-04-20T06:22:16;98232.97;;;24.69;60.75
38880;BME280;25887;30.194;-97.880;2023-04-20T06:24:42;98229.47;;;24.68;60.70
38880;BME280;25887;30.194;-97.880;2023-04-20T06:27:10;98236.53;;;24.68;60.86
38880;BME280;25887;30.194;-97.880;2023-04-20T06:29:37;98235.59;;;24.69;60.82
38880;BME280;25887;30.194;-97.880;2023-04-20T06:32:03;98242.63;;;24.68;60.72
38880;BME280;25887;30.194;-97.880;2023-04-20T06:34:30;98230.31;;;24.69;60.95
38880;BME280;25887;30.194;-97.880;2023-04-20T06:36:57;98226.00;;;24.68;60.96
38880;BME280;25887;30.194;-97.880;2023-04-20T06:39:23;98222.63;;;24.66;60.84
38880;BME280;25887;30.194;-97.880;2023-04-20T06:41:50;98217.28;;;24.67;61.06
38880;BME280;25887;30.194;-97.880;2023-04-20T06:44:16;98213.81;;;24.67;60.91
38880;BME280;25887;30.194;-97.880;2023-04-20T06:46:42;98220.81;;;24.66;60.94
38880;BME280;25887;30.194;-97.880;2023-04-20T06:49:08;98220.81;;;24.66;60.85
38880;BME280;25887;30.194;-97.880;2023-04-20T06:51:35;98220.91;;;24.65;60.87
38880;BME280;25887;30.194;-97.880;2023-04-20T06:54:01;98210.50;;;24.63;61.18
38880;BME280;25887;30.194;-97.880;2023-04-20T06:56:27;98210.50;;;24.63;60.88
38880;BME280;25887;30.194;-97.880;2023-04-20T06:58:53;98206.19;;;24.62;60.88
38880;BME280;25887;30.194;-97.880;2023-04-20T07:01:19;98210.63;;;24.62;61.22
38880;BME280;25887;30.194;-97.880;2023-04-20T07:03:46;98206.41;;;24.59;61.05
38880;BME280;25887;30.194;-97.880;2023-04-20T07:06:12;98209.94;;;24.58;61.37
38880;BME280;25887;30.194;-97.880;2023-04-20T07:08:38;98210.03;;;24.57;61.46
38880;BME280;25887;30.194;-97.880;2023-04-20T07:11:04;98208.34;;;24.56;61.56
38880;BME280;25887;30.194;-97.880;2023-04-20T07:13:31;98212.00;;;24.53;61.53
38880;BME280;25887;30.194;-97.880;2023-04-20T07:15:57;98206.91;;;24.50;61.76
38880;BME280;25887;30.194;-97.880;2023-04-20T07:18:23;98205.22;;;24.49;61.82
38880;BME280;25887;30.194;-97.880;2023-04-20T07:20:50;98205.22;;;24.49;61.87
38880;BME280;25887;30.194;-97.880;2023-04-20T07:23:17;98198.28;;;24.48;62.06
38880;BME280;25887;30.194;-97.880;2023-04-20T07:25:43;98192.28;;;24.46;61.94
38880;BME280;25887;30.194;-97.880;2023-04-20T07:28:09;98189.66;;;24.46;62.06
38880;BME280;25887;30.194;-97.880;2023-04-20T07:30:35;98190.59;;;24.45;62.06
38880;BME280;25887;30.194;-97.880;2023-04-20T07:33:02;98180.16;;;24.43;62.20
38880;BME280;25887;30.194;-97.880;2023-04-20T07:35:28;98177.63;;;24.42;62.11
38880;BME280;25887;30.194;-97.880;2023-04-20T07:37:54;98175.84;;;24.42;62.12
38880;BME280;25887;30.194;-97.880;2023-04-20T07:40:20;98170.69;;;24.41;61.71
38880;BME280;25887;30.194;-97.880;2023-04-20T07:42:46;98161.97;;;24.40;62.49
38880;BME280;25887;30.194;-97.880;2023-04-20T07:45:13;98160.28;;;24.39;62.11
38880;BME280;25887;30.194;-97.880;2023-04-20T07:47:39;98164.59;;;24.40;62.35
38880;BME280;25887;30.194;-97.880;2023-04-20T07:50:08;98153.34;;;24.38;62.58
38880;BME280;25887;30.194;-97.880;2023-04-20T07:52:34;98153.53;;;24.35;62.44
38880;BME280;25887;30.194;-97.880;2023-04-20T07:55:01;98153.47;;;24.37;62.67
38880;BME280;25887;30.194;-97.880;2023-04-20T07:57:28;98151.00;;;24.34;62.63
38880;BME280;25887;30.194;-97.880;2023-04-20T07:59:54;98147.53;;;24.33;62.65
38880;BME280;25887;30.194;-97.880;2023-04-20T08:02:22;98144.13;;;24.31;62.83
38880;BME280;25887;30.194;-97.880;2023-04-20T08:04:48;98142.44;;;24.30;62.79
38880;BME280;25887;30.194;-97.880;2023-04-20T08:07:14;98141.75;;;24.27;62.98
38880;BME280;25887;30.194;-97.880;2023-04-20T08:09:41;98138.28;;;24.26;63.16
38880;BME280;25887;30.194;-97.880;2023-04-20T08:12:07;98139.22;;;24.25;63.08
38880;BME280;25887;30.194;-97.880;2023-04-20T08:14:33;98122.63;;;24.25;63.07
38880;BME280;25887;30.194;-97.880;2023-04-20T08:16:59;98123.56;;;24.24;63.67
38880;BME280;25887;30.194;-97.880;2023-04-20T08:19:25;98121.88;;;24.23;63.34
38880;BME280;25887;30.194;-97.880;2023-04-20T08:21:51;98121.88;;;24.23;63.19
38880;BME280;25887;30.194;-97.880;2023-04-20T08:24:18;98121.88;;;24.23;63.25
38880;BME280;25887;30.194;-97.880;2023-04-20T08:26:45;98115.78;;;24.22;63.09
38880;BME280;25887;30.194;-97.880;2023-04-20T08:29:11;98109.75;;;24.20;63.52
38880;BME280;25887;30.194;-97.880;2023-04-20T08:31:37;98114.19;;;24.19;63.39
38880;BME280;25887;30.194;-97.880;2023-04-20T08:34:03;98108.94;;;24.19;63.71
38880;BME280;25887;30.194;-97.880;2023-04-20T08:36:30;98104.53;;;24.20;63.69
38880;BME280;25887;30.194;-97.880;2023-04-20T08:39:11;98102.00;;;24.18;63.84
38880;BME280;25887;30.194;-97.880;2023-04-20T08:41:38;98102.94;;;24.17;63.99
38880;BME280;25887;30.194;-97.880;2023-04-20T08:44:05;98101.25;;;24.16;63.72
38880;BME280;25887;30.194;-97.880;2023-04-20T08:46:32;98099.47;;;24.17;63.89
38880;BME280;25887;30.194;-97.880;2023-04-20T08:49:02;98095.06;;;24.17;63.97
38880;BME280;25887;30.194;-97.880;2023-04-20T08:51:29;98101.16;;;24.18;63.78
38880;BME280;25887;30.194;-97.880;2023-04-20T08:54:03;98096.84;;;24.17;64.48
38880;BME280;25887;30.194;-97.880;2023-04-20T08:59:00;98094.97;;;24.19;64.09
38880;BME280;25887;30.194;-97.880;2023-04-20T09:01:28;98094.00;;;24.20;64.13
38880;BME280;25887;30.194;-97.880;2023-04-20T09:03:54;98087.09;;;24.19;63.90
38880;BME280;25887;30.194;-97.880;2023-04-20T09:06:20;98087.94;;;24.19;64.04
38880;BME280;25887;30.194;-97.880;2023-04-20T09:08:47;98088.69;;;24.22;63.96
38880;BME280;25887;30.194;-97.880;2023-04-20T09:11:24;98085.22;;;24.21;63.97
38880;BME280;25887;30.194;-97.880;2023-04-20T09:14:04;98085.31;;;24.19;64.17
38880;BME280;25887;30.194;-97.880;2023-04-20T09:16:56;98091.38;;;24.20;64.26
38880;BME280;25887;30.194;-97.880;2023-04-20T09:19:30;98089.72;;;24.19;64.09
38880;BME280;25887;30.194;-97.880;2023-04-20T09:21:58;98087.94;;;24.19;64.46
38880;BME280;25887;30.194;-97.880;2023-04-20T09:24:34;98084.47;;;24.19;64.43
38880;BME280;25887;30.194;-97.880;2023-04-20T09:27:13;98081.84;;;24.19;64.38
38880;BME280;25887;30.194;-97.880;2023-04-20T09:29:39;98085.41;;;24.18;64.47
38880;BME280;25887;30.194;-97.880;2023-04-20T09:32:06;98081.84;;;24.19;64.28
38880;BME280;25887;30.194;-97.880;2023-04-20T09:34:42;98083.53;;;24.20;64.66
38880;BME280;25887;30.194;-97.880;2023-04-20T09:37:09;98087.84;;;24.21;64.41
38880;BME280;25887;30.194;-97.880;2023-04-20T09:39:42;98092.16;;;24.22;64.35
38880;BME280;25887;30.194;-97.880;2023-04-20T09:42:12;98099.09;;;24.23;64.38
38880;BME280;25887;30.194;-97.880;2023-04-20T09:44:39;98085.97;;;24.23;64.24
38880;BME280;25887;30.194;-97.880;2023-04-20T09:47:05;98087.66;;;24.24;64.51
38880;BME280;25887;30.194;-97.880;2023-04-20T09:49:33;98093.75;;;24.25;64.39
38880;BME280;25887;30.194;-97.880;2023-04-20T09:52:03;98091.97;;;24.25;64.73
38880;BME280;25887;30.194;-97.880;2023-04-20T09:54:29;98089.34;;;24.25;64.53
38880;BME280;25887;30.194;-97.880;2023-04-20T09:56:59;98080.72;;;24.23;64.72
38880;BME280;25887;30.194;-97.880;2023-04-20T09:59:26;98085.03;;;24.24;64.61
38880;BME280;25887;30.194;-97.880;2023-04-20T10:01:53;98084.28;;;24.22;64.72
38880;BME280;25887;30.194;-97.880;2023-04-20T10:04:19;98083.34;;;24.23;64.93
38880;BME280;25887;30.194;-97.880;2023-04-20T10:06:53;98086.81;;;24.24;64.85
38880;BME280;25887;30.194;-97.880;2023-04-20T10:09:22;98085.97;;;24.23;65.00
38880;BME280;25887;30.194;-97.880;2023-04-20T10:11:49;98087.75;;;24.23;65.01
38880;BME280;25887;30.194;-97.880;2023-04-20T10:14:20;98086.81;;;24.24;65.23
38880;BME280;25887;30.194;-97.880;2023-04-20T10:17:08;98090.28;;;24.24;65.02
38880;BME280;25887;30.194;-97.880;2023-04-20T10:19:43;98092.06;;;24.24;65.05
38880;BME280;25887;30.194;-97.880;2023-04-20T10:22:11;98096.38;;;24.25;65.06
38880;BME280;25887;30.194;-97.880;2023-04-20T10:24:38;98096.38;;;24.25;65.10
38880;BME280;25887;30.194;-97.880;2023-04-20T10:27:21;98092.81;;;24.26;65.05
38880;BME280;25887;30.194;-97.880;2023-04-20T10:29:47;98097.13;;;24.27;64.97
38880;BME280;25887;30.194;-97.880;2023-04-20T10:32:27;98103.16;;;24.29;65.16
38880;BME280;25887;30.194;-97.880;2023-04-20T10:35:09;98100.53;;;24.29;65.34
38880;BME280;25887;30.194;-97.880;2023-04-20T10:37:47;98105.00;;;24.27;64.74
38880;BME280;25887;30.194;-97.880;2023-04-20T10:40:13;98102.31;;;24.28;65.27
38880;BME280;25887;30.194;-97.880;2023-04-20T10:42:43;98109.25;;;24.29;65.25
38880;BME280;25887;30.194;-97.880;2023-04-20T10:45:10;98110.94;;;24.30;65.06
38880;BME280;25887;30.194;-97.880;2023-04-20T10:47:36;98104.75;;;24.31;65.11
38880;BME280;25887;30.194;-97.880;2023-04-20T10:50:15;98107.28;;;24.33;65.07
38880;BME280;25887;30.194;-97.880;2023-04-20T10:52:43;98111.59;;;24.34;64.88
38880;BME280;25887;30.194;-97.880;2023-04-20T10:55:22;98117.69;;;24.34;65.18
38880;BME280;25887;30.194;-97.880;2023-04-20T10:57:50;98122.88;;;24.36;65.22
38880;BME280;25887;30.194;-97.880;2023-04-20T11:00:18;98121.09;;;24.36;64.91
38880;BME280;25887;30.194;-97.880;2023-04-20T11:02:53;98126.25;;;24.38;65.12
38880;BME280;25887;30.194;-97.880;2023-04-20T11:05:19;98121.75;;;24.40;64.74
38880;BME280;25887;30.194;-97.880;2023-04-20T11:07:53;98123.63;;;24.38;64.85
38880;BME280;25887;30.194;-97.880;2023-04-20T11:10:22;98126.34;;;24.36;65.11
38880;BME280;25887;30.194;-97.880;2023-04-20T11:12:51;98127.19;;;24.37;65.10
38880;BME280;25887;30.194;-97.880;2023-04-20T11:15:17;98119.38;;;24.35;65.17
38880;BME280;25887;30.194;-97.880;2023-04-20T11:17:44;98126.34;;;24.36;65.03
38880;BME280;25887;30.194;-97.880;2023-04-20T11:20:12;98124.47;;;24.38;64.88
38880;BME280;25887;30.194;-97.880;2023-04-20T11:22:40;98129.63;;;24.40;64.98
38880;BME280;25887;30.194;-97.880;2023-04-20T11:25:09;98123.53;;;24.39;65.10
38880;BME280;25887;30.194;-97.880;2023-04-20T11:27:36;98134.13;;;24.38;65.33
38880;BME280;25887;30.194;-97.880;2023-04-20T11:30:04;98136.75;;;24.38;65.06
38880;BME280;25887;30.194;-97.880;2023-04-20T11:32:33;98137.59;;;24.38;65.14
38880;BME280;25887;30.194;-97.880;2023-04-20T11:35:05;98136.66;;;24.39;65.08
38880;BME280;25887;30.194;-97.880;2023-04-20T11:37:50;98149.69;;;24.41;65.17
38880;BME280;25887;30.194;-97.880;2023-04-20T11:40:19;98148.84;;;24.40;65.17
38880;BME280;25887;30.194;-97.880;2023-04-20T11:42:45;98146.22;;;24.40;65.09
38880;BME280;25887;30.194;-97.880;2023-04-20T11:45:11;98149.78;;;24.39;65.15
38880;BME280;25887;30.194;-97.880;2023-04-20T11:47:38;98153.25;;;24.40;65.50
38880;BME280;25887;30.194;-97.880;2023-04-20T11:50:06;98148.84;;;24.40;65.55
38880;BME280;25887;30.194;-97.880;2023-04-20T11:52:33;98155.78;;;24.41;65.30
38880;BME280;25887;30.194;-97.880;2023-04-20T11:54:59;98160.94;;;24.43;65.20
38880;BME280;25887;30.194;-97.880;2023-04-20T11:57:27;98153.91;;;24.43;65.14
38880;BME280;25887;30.194;-97.880;2023-04-20T11:59:53;98154.78;;;24.44;65.02
38880;BME280;25887;30.194;-97.880;2023-04-20T12:02:19;98164.41;;;24.43;65.08
38880;BME280;25887;30.194;-97.880;2023-04-20T12:04:45;98166.13;;;24.44;65.06
38880;BME280;25887;30.194;-97.880;2023-04-20T12:07:12;98170.44;;;24.45;65.32
38880;BME280;25887;30.194;-97.880;2023-04-20T12:09:38;98179.16;;;24.46;65.10
38880;BME280;25887;30.194;-97.880;2023-04-20T12:12:07;98182.72;;;24.45;65.46
38880;BME280;25887;30.194;-97.880;2023-04-20T12:14:34;98186.19;;;24.45;65.16
38880;BME280;25887;30.194;-97.880;2023-04-20T12:17:02;98185.25;;;24.47;65.23
38880;BME280;25887;30.194;-97.880;2023-04-20T12:19:29;98193.13;;;24.47;65.32
38880;BME280;25887;30.194;-97.880;2023-04-20T12:21:56;98193.13;;;24.47;65.36
38880;BME280;25887;30.194;-97.880;2023-04-20T12:24:22;98187.88;;;24.47;65.37
38880;BME280;25887;30.194;-97.880;2023-04-20T12:26:48;98194.91;;;24.46;65.37
38880;BME280;25887;30.194;-97.880;2023-04-20T12:29:14;98197.53;;;24.46;65.61
38880;BME280;25887;30.194;-97.880;2023-04-20T12:31:41;98198.28;;;24.48;65.49
38880;BME280;25887;30.194;-97.880;2023-04-20T12:34:10;98201.75;;;24.49;65.63
38880;BME280;25887;30.194;-97.880;2023-04-20T12:36:37;98202.69;;;24.48;65.72
38880;BME280;25887;30.194;-97.880;2023-04-20T12:39:03;98209.66;;;24.49;65.35
38880;BME280;25887;30.194;-97.880;2023-04-20T12:41:29;98223.53;;;24.51;65.56
38880;BME280;25887;30.194;-97.880;2023-04-20T12:43:56;98230.50;;;24.52;65.42